| time (UTC) | temp C | wind direction | speed KPH | gust KPH | rain 1hr cm | rain 24hr cm | rain mn cm | humidity % | barometer mb |
| 20260507075428 | 13 | 59 | 11.3 | 16.1 | 0.00 | 0.00 | 0.00 | 64 | 1015.1 |
| 20260507073424 | 13 | 348 | 3.2 | 9.7 | 0.00 | 0.00 | 0.00 | 70 | 1015.0 |
| 20260507071422 | 11 | 63 | 3.2 | 8.0 | 0.00 | 0.00 | 0.00 | 79 | 1014.9 |
| 20260507070423 | 10 | 11 | 4.8 | 11.3 | 0.00 | 0.00 | 0.00 | 83 | 1014.9 |
| 20260507064421 | 8 | 54 | 3.2 | 9.7 | 0.00 | 0.00 | 0.00 | 86 | 1014.8 |
| 20260507063417 | 8 | 13 | 3.2 | 11.3 | 0.00 | 0.00 | 0.00 | 88 | 1014.8 |
| 20260507062418 | 7 | 6 | 4.8 | 11.3 | 0.00 | 0.00 | 0.00 | 89 | 1014.8 |
| 20260507060418 | 7 | 51 | 0.0 | 4.8 | 0.00 | 0.00 | 0.00 | 88 | 1014.7 |
| 20260507055419 | 6 | 27 | 1.6 | 6.4 | 0.00 | 0.00 | 0.00 | 88 | 1014.5 |
| 20260507054414 | 6 | 1 | 1.6 | 3.2 | 0.00 | 0.00 | 0.00 | 88 | 1014.6 |
| 20260507053409 | 6 | 338 | 1.6 | 4.8 | 0.00 | 0.00 | 0.00 | 88 | 1014.5 |
| 20260507052410 | 6 | 337 | 1.6 | 6.4 | 0.00 | 0.00 | 0.00 | 88 | 1014.4 |
| 20260507050405 | 5 | 343 | 3.2 | 4.8 | 0.00 | 0.00 | 0.00 | 87 | 1014.2 |
| 20260507045405 | 5 | 357 | 1.6 | 4.8 | 0.00 | 0.00 | 0.00 | 87 | 1014.0 |
| 20260507044407 | 5 | 350 | 3.2 | 3.2 | 0.00 | 0.00 | 0.00 | 86 | 1014.0 |
| 20260507043404 | 5 | 1 | 1.6 | 4.8 | 0.00 | 0.00 | 0.00 | 86 | 1013.9 |
| 20260507042401 | 5 | 341 | 3.2 | 4.8 | 0.00 | 0.00 | 0.00 | 86 | 1013.9 |
| 20260507041404 | 5 | 0 | 0.0 | 4.8 | 0.00 | 0.00 | 0.00 | 85 | 1013.9 |
| 20260507035347 | 5 | 341 | 1.6 | 3.2 | 0.00 | 0.00 | 0.00 | 85 | 1013.8 |
| 20260507034345 | 5 | 354 | 1.6 | 4.8 | 0.00 | 0.00 | 0.00 | 85 | 1013.7 |
| 20260507033341 | 5 | 340 | 1.6 | 3.2 | 0.00 | 0.00 | 0.00 | 84 | 1013.7 |
| 20260507032336 | 5 | 340 | 0.0 | 3.2 | 0.00 | 0.00 | 0.00 | 84 | 1013.6 |
| 20260507031334 | 5 | 347 | 1.6 | 4.8 | 0.00 | 0.00 | 0.00 | 84 | 1013.5 |
| 20260507030336 | 6 | 353 | 0.0 | 3.2 | 0.00 | 0.00 | 0.00 | 84 | 1013.4 |
| 20260507024332 | 6 | 337 | 0.0 | 0.0 | 0.00 | 0.00 | 0.00 | 83 | 1013.4 |
| 20260507023332 | 6 | 337 | 0.0 | 3.2 | 0.00 | 0.00 | 0.00 | 83 | 1013.4 |
| 20260507022335 | 6 | 338 | 1.6 | 3.2 | 0.00 | 0.00 | 0.00 | 83 | 1013.4 |
| 20260507021334 | 6 | 338 | 0.0 | 4.8 | 0.00 | 0.00 | 0.00 | 83 | 1013.3 |
| 20260507020334 | 6 | 340 | 0.0 | 3.2 | 0.00 | 0.00 | 0.00 | 83 | 1013.2 |
| 20260507015318 | 6 | 340 | 0.0 | 4.8 | 0.00 | 0.00 | 0.00 | 83 | 1013.1 |
| 20260507013313 | 6 | 351 | 0.0 | 1.6 | 0.00 | 0.00 | 0.00 | 82 | 1013.1 |
| 20260507012311 | 6 | 358 | 3.2 | 4.8 | 0.00 | 0.00 | 0.00 | 82 | 1013.1 |
| 20260507011311 | 6 | 340 | 1.6 | 4.8 | 0.00 | 0.00 | 0.00 | 81 | 1013.1 |
| 20260507010310 | 6 | 0 | 1.6 | 3.2 | 0.00 | 0.00 | 0.00 | 81 | 1013.1 |
| 20260507005315 | 7 | 1 | 0.0 | 3.2 | 0.00 | 0.00 | 0.00 | 81 | 1013.0 |
| 20260507004312 | 7 | 38 | 1.6 | 1.6 | 0.00 | 0.00 | 0.00 | 81 | 1013.0 |
| 20260507003310 | 7 | 38 | 0.0 | 0.0 | 0.00 | 0.00 | 0.00 | 80 | 1013.0 |
| 20260507002313 | 7 | 38 | 0.0 | 3.2 | 0.00 | 0.00 | 0.00 | 80 | 1013.0 |
| 20260507001310 | 7 | 38 | 0.0 | 1.6 | 0.00 | 0.00 | 0.00 | 80 | 1013.0 |
| 20260507000314 | 7 | 38 | 0.0 | 1.6 | 0.00 | 0.00 | 0.00 | 80 | 1013.1 |
| 20260506235311 | 7 | 55 | 0.0 | 4.8 | 0.00 | 0.00 | 0.00 | 80 | 1013.1 |
| 20260506234311 | 7 | 20 | 3.2 | 6.4 | 0.00 | 0.00 | 0.00 | 79 | 1013.1 |
| 20260506233310 | 8 | 39 | 0.0 | 3.2 | 0.00 | 0.00 | 0.00 | 79 | 1013.0 |
| 20260506232309 | 8 | 47 | 0.0 | 3.2 | 0.00 | 0.00 | 0.00 | 79 | 1013.0 |
| 20260506231309 | 8 | 47 | 1.6 | 3.2 | 0.00 | 0.00 | 0.00 | 79 | 1013.1 |
| 20260506225310 | 8 | 34 | 4.8 | 6.4 | 0.00 | 0.00 | 0.00 | 79 | 1012.9 |
| 20260506224308 | 8 | 38 | 1.6 | 6.4 | 0.00 | 0.00 | 0.00 | 79 | 1012.8 |
| 20260506223308 | 8 | 44 | 4.8 | 8.0 | 0.00 | 0.00 | 0.00 | 79 | 1012.8 |
| 20260506222306 | 8 | 10 | 3.2 | 9.7 | 0.00 | 0.00 | 0.00 | 79 | 1012.8 |
| 20260506221308 | 8 | 39 | 3.2 | 9.7 | 0.00 | 0.00 | 0.00 | 79 | 1012.8 |
| 20260506220308 | 9 | 31 | 3.2 | 11.3 | 0.00 | 0.00 | 0.00 | 79 | 1012.6 |
| 20260506215306 | 9 | 34 | 3.2 | 11.3 | 0.00 | 0.00 | 0.00 | 79 | 1012.5 |
| 20260506214306 | 9 | 48 | 4.8 | 9.7 | 0.00 | 0.00 | 0.00 | 79 | 1012.5 |
| 20260506213304 | 9 | 27 | 3.2 | 11.3 | 0.00 | 0.00 | 0.00 | 79 | 1012.5 |
| 20260506212306 | 10 | 68 | 6.4 | 11.3 | 0.00 | 0.00 | 0.00 | 78 | 1012.4 |
| 20260506211305 | 10 | 39 | 6.4 | 16.1 | 0.00 | 0.00 | 0.00 | 77 | 1012.4 |
| 20260506210307 | 10 | 59 | 6.4 | 11.3 | 0.00 | 0.00 | 0.00 | 76 | 1012.3 |
| 20260506205306 | 10 | 75 | 4.8 | 14.5 | 0.00 | 0.00 | 0.00 | 75 | 1012.2 |
| 20260506204305 | 10 | 72 | 4.8 | 14.5 | 0.00 | 0.00 | 0.00 | 75 | 1012.3 |
| 20260506203307 | 10 | 44 | 6.4 | 11.3 | 0.00 | 0.00 | 0.00 | 74 | 1012.2 |
| 20260506202306 | 10 | 25 | 9.7 | 16.1 | 0.00 | 0.00 | 0.00 | 73 | 1012.1 |
| 20260506201308 | 10 | 44 | 6.4 | 9.7 | 0.00 | 0.00 | 0.00 | 72 | 1012.1 |
| 20260506200307 | 10 | 51 | 9.7 | 17.7 | 0.00 | 0.00 | 0.00 | 72 | 1012.0 |
| 20260506195307 | 11 | 38 | 6.4 | 16.1 | 0.00 | 0.00 | 0.00 | 71 | 1011.8 |
| 20260506194306 | 11 | 61 | 4.8 | 14.5 | 0.00 | 0.00 | 0.00 | 70 | 1011.7 |
| 20260506192307 | 11 | 38 | 9.7 | 19.3 | 0.00 | 0.00 | 0.00 | 67 | 1011.6 |
| 20260506190304 | 11 | 37 | 6.4 | 11.3 | 0.00 | 0.00 | 0.00 | 64 | 1011.3 |
| 20260506185307 | 12 | 24 | 12.9 | 22.5 | 0.00 | 0.00 | 0.00 | 63 | 1011.1 |
| 20260506184307 | 12 | 86 | 9.7 | 22.5 | 0.00 | 0.00 | 0.00 | 61 | 1011.0 |
| 20260506183233 | 12 | 31 | 11.3 | 20.9 | 0.00 | 0.00 | 0.00 | 60 | 1011.0 |
| 20260506182233 | 12 | 61 | 8.0 | 16.1 | 0.00 | 0.00 | 0.00 | 59 | 1010.8 |
| 20260506181229 | 13 | 66 | 12.9 | 24.1 | 0.00 | 0.00 | 0.00 | 58 | 1010.7 |
| 20260506175230 | 13 | 102 | 14.5 | 19.3 | 0.00 | 0.00 | 0.00 | 55 | 1010.5 |
| 20260506174225 | 13 | 69 | 14.5 | 22.5 | 0.00 | 0.00 | 0.00 | 54 | 1010.4 |
| 20260506173218 | 13 | 44 | 9.7 | 25.7 | 0.00 | 0.00 | 0.00 | 54 | 1010.2 |
| 20260506172219 | 13 | 58 | 8.0 | 22.5 | 0.00 | 0.00 | 0.00 | 53 | 1010.1 |
| 20260506170215 | 13 | 51 | 17.7 | 27.4 | 0.00 | 0.00 | 0.00 | 55 | 1010.1 |
| 20260506165207 | 13 | 51 | 14.5 | 25.7 | 0.00 | 0.00 | 0.00 | 57 | 1009.9 |
| 20260506163205 | 13 | 0 | 8.0 | 27.4 | 0.00 | 0.00 | 0.00 | 57 | 1009.9 |
| 20260506162204 | 13 | 345 | 8.0 | 19.3 | 0.00 | 0.00 | 0.00 | 58 | 1009.7 |
| 20260506160206 | 14 | 93 | 12.9 | 20.9 | 0.00 | 0.00 | 0.00 | 57 | 1009.8 |
| 20260506155204 | 14 | 62 | 11.3 | 29.0 | 0.00 | 0.00 | 0.00 | 58 | 1009.9 |
| 20260506154200 | 14 | 62 | 12.9 | 24.1 | 0.00 | 0.00 | 0.00 | 59 | 1009.8 |
| 20260506153159 | 14 | 0 | 14.5 | 29.0 | 0.00 | 0.00 | 0.00 | 58 | 1009.8 |
| 20260506152157 | 14 | 61 | 14.5 | 25.7 | 0.00 | 0.00 | 0.00 | 58 | 1009.6 |
| 20260506151157 | 14 | 52 | 11.3 | 19.3 | 0.00 | 0.00 | 0.00 | 58 | 1009.6 |
| 20260506150156 | 14 | 61 | 14.5 | 27.4 | 0.00 | 0.00 | 0.00 | 57 | 1009.6 |
| 20260506145159 | 15 | 49 | 11.3 | 25.7 | 0.00 | 0.00 | 0.00 | 55 | 1009.6 |
| 20260506144159 | 15 | 30 | 17.7 | 32.2 | 0.00 | 0.00 | 0.00 | 54 | 1009.6 |
| 20260506143156 | 15 | 66 | 9.7 | 25.7 | 0.00 | 0.00 | 0.00 | 54 | 1009.4 |
| 20260506140155 | 16 | 73 | 9.7 | 17.7 | 0.00 | 0.00 | 0.00 | 54 | 1009.5 |
| 20260506135156 | 16 | 49 | 9.7 | 20.9 | 0.00 | 0.00 | 0.00 | 53 | 1009.4 |
| 20260506134156 | 15 | 0 | 14.5 | 24.1 | 0.00 | 0.00 | 0.00 | 55 | 1009.4 |
| 20260506133157 | 15 | 44 | 12.9 | 24.1 | 0.00 | 0.00 | 0.00 | 55 | 1009.4 |
| 20260506131155 | 16 | 82 | 11.3 | 24.1 | 0.00 | 0.00 | 0.00 | 50 | 1009.3 |
| 20260506130155 | 16 | 47 | 11.3 | 29.0 | 0.00 | 0.00 | 0.00 | 54 | 1009.3 |
| 20260506124154 | 16 | 52 | 12.9 | 25.7 | 0.00 | 0.00 | 0.00 | 55 | 1009.3 |
| 20260506123155 | 16 | 51 | 14.5 | 25.7 | 0.00 | 0.00 | 0.00 | 54 | 1009.2 |
| 20260506122156 | 16 | 351 | 9.7 | 25.7 | 0.00 | 0.00 | 0.00 | 58 | 1009.1 |
| 20260506121153 | 16 | 28 | 8.0 | 17.7 | 0.00 | 0.00 | 0.00 | 58 | 1009.1 |
| 20260506120155 | 15 | 56 | 6.4 | 24.1 | 0.00 | 0.00 | 0.00 | 59 | 1009.1 |
| 20260506115152 | 14 | 0 | 9.7 | 25.7 | 0.00 | 0.00 | 0.00 | 59 | 1009.1 |
| 20260506114152 | 14 | 59 | 8.0 | 22.5 | 0.00 | 0.00 | 0.00 | 58 | 1009.1 |
| 20260506113151 | 15 | 0 | 11.3 | 17.7 | 0.00 | 0.00 | 0.00 | 57 | 1009.2 |
| 20260506112148 | 15 | 45 | 11.3 | 24.1 | 0.00 | 0.00 | 0.00 | 54 | 1009.1 |
| 20260506111149 | 15 | 90 | 9.7 | 19.3 | 0.00 | 0.00 | 0.00 | 51 | 1009.0 |
| 20260506110146 | 15 | 83 | 11.3 | 24.1 | 0.00 | 0.00 | 0.00 | 53 | 1009.1 |
| 20260506105144 | 16 | 39 | 9.7 | 22.5 | 0.00 | 0.00 | 0.00 | 53 | 1009.0 |
| 20260506103139 | 16 | 80 | 14.5 | 29.0 | 0.00 | 0.00 | 0.00 | 52 | 1009.2 |
| 20260506102140 | 15 | 48 | 14.5 | 29.0 | 0.00 | 0.00 | 0.00 | 60 | 1009.0 |
| 20260506101137 | 13 | 75 | 6.4 | 19.3 | 0.00 | 0.00 | 0.00 | 64 | 1009.0 |
| 20260506095134 | 13 | 54 | 11.3 | 17.7 | 0.00 | 0.00 | 0.00 | 65 | 1009.0 |
| 20260506094133 | 13 | 62 | 6.4 | 19.3 | 0.00 | 0.00 | 0.00 | 65 | 1008.9 |
| 20260506093130 | 13 | 44 | 4.8 | 19.3 | 0.00 | 0.00 | 0.00 | 67 | 1009.0 |
| 20260506092108 | 13 | 55 | 11.3 | 20.9 | 0.00 | 0.00 | 0.00 | 65 | 1009.0 |
| 20260506091110 | 13 | 34 | 6.4 | 19.3 | 0.00 | 0.00 | 0.00 | 65 | 1008.8 |
| 20260506085102 | 13 | 3 | 8.0 | 19.3 | 0.00 | 0.00 | 0.00 | 70 | 1008.7 |
| 20260506084058 | 12 | 37 | 8.0 | 25.7 | 0.00 | 0.00 | 0.00 | 71 | 1008.7 |
| 20260506081051 | 12 | 87 | 9.7 | 14.5 | 0.00 | 0.00 | 0.00 | 73 | 1008.6 |